Time;durP1;ratioP1;P1;durP2;ratioP2;P2;SDS_P1;SDS_P2;PMS_P1;PMS_P2;Temp;Humidity;BMP_temperature;BMP_pressure;BME280_temperature;BME280_humidity;BME280_pressure;Samples;Min_cycle;Max_cycle;Signal;HPM_P1;HPM_P2
2021/07/25 00:00:37;;;;;;;;;4.00;4.00;;;;;28.12;43.25;99965.75;5042232;28;45386;-77
2021/07/25 00:03:02;;;;;;;;;3.75;3.75;;;;;28.15;44.63;99960.16;5024680;28;45395;-77
2021/07/25 00:05:28;;;;;;;;;5.00;4.50;;;;;28.16;43.98;99956.50;5042200;28;45470;-77
2021/07/25 00:07:53;;;;;;;;;3.75;3.75;;;;;28.20;44.74;99965.16;5042136;28;50789;-77
2021/07/25 00:10:19;;;;;;;;;4.25;4.00;;;;;28.21;44.20;99948.94;5041533;28;62362;-77
2021/07/25 00:12:44;;;;;;;;;4.00;4.00;;;;;28.25;43.67;99954.94;5024401;28;45414;-77
2021/07/25 00:15:10;;;;;;;;;4.00;4.00;;;;;28.26;44.49;99957.50;5040822;28;45271;-77
2021/07/25 00:17:35;;;;;;;;;2.50;2.50;;;;;28.26;43.42;99959.34;5057631;28;48062;-77
2021/07/25 00:20:02;;;;;;;;;6.00;4.00;;;;;28.26;44.06;99954.81;5037287;28;45306;-77
2021/07/25 00:22:27;;;;;;;;;4.00;3.75;;;;;28.32;44.18;99961.56;5044544;28;45533;-77
2021/07/25 00:25:07;;;;;;;;;5.25;4.00;;;;;28.33;44.17;99956.09;5077449;28;58108;-77
2021/07/25 00:27:32;;;;;;;;;5.25;3.25;;;;;28.32;44.00;99954.38;5062001;28;47511;-77
2021/07/25 00:29:58;;;;;;;;;3.25;1.75;;;;;28.37;44.30;99954.03;5062179;28;45322;-77
2021/07/25 00:32:23;;;;;;;;;4.25;3.00;;;;;28.39;43.73;99952.06;5061681;28;58124;-77
2021/07/25 00:34:48;;;;;;;;;3.75;3.75;;;;;28.40;43.41;99954.63;5043586;28;61218;-77
2021/07/25 00:37:14;;;;;;;;;3.75;3.75;;;;;28.39;43.23;99947.56;5060588;28;46110;-77
2021/07/25 00:39:39;;;;;;;;;3.25;3.25;;;;;28.41;43.91;99947.47;5060834;28;47688;-77
2021/07/25 00:42:05;;;;;;;;;2.50;2.50;;;;;28.37;43.84;99937.91;5043945;28;45642;-77
2021/07/25 00:44:30;;;;;;;;;3.00;2.25;;;;;28.36;43.72;99934.38;5061591;28;46063;-77
2021/07/25 00:46:59;;;;;;;;;2.50;2.50;;;;;28.34;43.60;99927.44;5043182;28;65984;-77
2021/07/25 00:49:25;;;;;;;;;2.00;2.00;;;;;28.36;43.08;99931.69;5043903;28;45373;-77
2021/07/25 00:51:51;;;;;;;;;2.75;2.50;;;;;28.35;43.73;99934.50;5060738;28;45433;-77
2021/07/25 00:54:16;;;;;;;;;3.50;2.75;;;;;28.32;43.56;99923.97;5060526;28;45390;-77
2021/07/25 00:56:42;;;;;;;;;2.00;2.00;;;;;28.33;43.57;99925.72;5059885;28;60968;-76
2021/07/25 00:59:07;;;;;;;;;4.00;3.00;;;;;28.35;43.51;99923.75;5059631;28;58482;-77
2021/07/25 01:01:32;;;;;;;;;2.75;2.25;;;;;28.34;43.82;99928.28;5061747;28;45314;-77
2021/07/25 01:04:32;;;;;;;;;4.00;2.25;;;;;28.34;43.55;99925.59;5059732;28;45338;-77
2021/07/25 01:07:29;;;;;;;;;3.00;3.00;;;;;28.29;44.05;99922.41;5061554;28;45297;-77
2021/07/25 01:10:13;;;;;;;;;4.00;3.00;;;;;28.27;43.71;99918.97;5060284;28;45241;-77
2021/07/25 01:12:43;;;;;;;;;2.00;2.00;;;;;28.26;43.20;99919.94;5061570;28;45301;-77
2021/07/25 01:15:08;;;;;;;;;5.00;4.00;;;;;28.28;43.26;99915.28;5061140;28;45256;-77
2021/07/25 01:17:35;;;;;;;;;2.75;2.75;;;;;28.28;43.37;99912.63;5043307;28;45252;-77
2021/07/25 01:20:04;;;;;;;;;3.00;3.00;;;;;28.27;42.85;99910.91;5059975;28;45481;-77
2021/07/25 01:22:31;;;;;;;;;3.50;3.50;;;;;28.25;43.61;99920.06;5060279;28;45274;-77
2021/07/25 01:24:56;;;;;;;;;4.00;2.50;;;;;28.23;43.92;99913.94;5043179;28;45489;-77
2021/07/25 01:27:24;;;;;;;;;2.50;2.50;;;;;28.23;43.83;99916.63;5060492;28;69551;-76
2021/07/25 01:29:50;;;;;;;;;3.25;3.25;;;;;28.23;43.66;99913.94;5059664;28;45352;-77
2021/07/25 01:32:15;;;;;;;;;3.00;3.00;;;;;28.22;44.09;99918.44;5043402;28;45332;-75
2021/07/25 01:34:40;;;;;;;;;3.75;2.50;;;;;28.23;44.13;99916.63;5042438;28;66223;-77
2021/07/25 01:37:06;;;;;;;;;3.00;3.00;;;;;28.20;43.90;99914.19;5059911;28;46081;-77
2021/07/25 01:39:31;;;;;;;;;1.00;0.00;;;;;28.22;43.56;99921.13;5042257;28;62064;-76
2021/07/25 01:41:56;;;;;;;;;3.00;2.00;;;;;28.20;43.60;99924.91;5042216;28;66976;-77
2021/07/25 01:44:22;;;;;;;;;3.50;3.50;;;;;28.16;44.16;99919.78;5058826;28;54988;-77
2021/07/25 01:46:47;;;;;;;;;3.25;3.00;;;;;28.15;43.53;99928.81;5042343;28;65831;-77
2021/07/25 01:49:13;;;;;;;;;3.00;2.00;;;;;28.11;44.13;99916.59;5042804;28;45614;-77
2021/07/25 01:51:38;;;;;;;;;2.00;2.00;;;;;28.12;44.04;99923.66;5042217;28;62196;-77
2021/07/25 01:54:04;;;;;;;;;4.00;3.25;;;;;28.07;43.61;99923.19;5044925;28;45488;-77
2021/07/25 01:56:29;;;;;;;;;6.00;4.00;;;;;28.09;44.34;99917.69;5059534;28;48047;-76
2021/07/25 01:58:56;;;;;;;;;4.00;4.00;;;;;28.07;43.70;99920.50;5058511;28;64365;-77
2021/07/25 02:01:22;;;;;;;;;3.50;3.00;;;;;28.06;43.91;99918.78;5043105;28;45395;-76
2021/07/25 02:03:47;;;;;;;;;4.25;3.00;;;;;28.09;44.47;99915.00;5042506;28;45310;-77
2021/07/25 02:06:12;;;;;;;;;3.75;2.00;;;;;28.11;43.94;99916.59;5042037;28;52544;-77
2021/07/25 02:08:38;;;;;;;;;3.50;3.00;;;;;28.12;44.03;99912.94;5042088;28;55345;-76
2021/07/25 02:11:03;;;;;;;;;3.00;3.00;;;;;28.12;43.93;99910.25;5042845;28;45297;-77
2021/07/25 02:13:28;;;;;;;;;4.50;3.25;;;;;28.13;44.08;99903.06;5059641;28;60470;-77
2021/07/25 02:15:54;;;;;;;;;2.50;2.25;;;;;28.08;44.29;99908.78;5040540;28;67135;-77
2021/07/25 02:18:19;;;;;;;;;4.00;3.00;;;;;28.07;44.08;99907.09;5042365;28;45324;-77
2021/07/25 02:20:45;;;;;;;;;0.75;0.75;;;;;28.06;43.84;99907.19;5058340;28;61154;-77
2021/07/25 02:23:10;;;;;;;;;3.50;3.50;;;;;28.04;44.37;99907.31;5041792;28;63935;-77
2021/07/25 02:25:38;;;;;;;;;2.00;2.00;;;;;28.05;44.15;99900.97;5042345;28;46069;-76
2021/07/25 02:28:04;;;;;;;;;5.00;3.00;;;;;28.05;43.84;99900.09;5042489;28;45384;-76
2021/07/25 02:30:29;;;;;;;;;4.25;2.75;;;;;28.05;44.75;99900.97;5042234;28;45190;-76
2021/07/25 02:32:55;;;;;;;;;4.25;3.25;;;;;28.07;44.29;99901.72;5058891;28;45375;-76
2021/07/25 02:35:20;;;;;;;;;3.75;3.75;;;;;28.06;44.00;99902.69;5041479;28;64422;-77
2021/07/25 02:37:45;;;;;;;;;3.00;3.00;;;;;28.04;43.98;99899.25;5042149;28;45722;-76
2021/07/25 02:40:11;;;;;;;;;4.75;4.75;;;;;28.01;44.24;99896.81;5059692;28;58141;-77
2021/07/25 02:42:39;;;;;;;;;4.25;3.00;;;;;27.96;44.16;99890.94;5041820;28;45260;-77
2021/07/25 02:45:08;;;;;;;;;4.25;3.25;;;;;27.97;44.35;99883.75;5058634;28;48215;-76
2021/07/25 02:47:39;;;;;;;;;3.50;3.50;;;;;27.92;44.21;99877.91;5042139;28;45394;-76
2021/07/25 02:50:05;;;;;;;;;2.50;2.50;;;;;27.98;44.11;99894.38;5060270;28;45338;-76
2021/07/25 02:52:30;;;;;;;;;2.25;2.25;;;;;27.90;44.16;99886.06;5054434;28;45218;-76
2021/07/25 02:54:56;;;;;;;;;3.50;3.50;;;;;27.88;44.11;99885.31;5039147;28;66029;-76
2021/07/25 02:57:21;;;;;;;;;2.75;2.75;;;;;27.87;44.67;99889.81;5039639;28;45447;-76
2021/07/25 02:59:47;;;;;;;;;3.25;3.25;;;;;27.87;44.59;99888.97;5038392;28;45251;-76
2021/07/25 03:02:12;;;;;;;;;5.00;3.50;;;;;27.89;44.60;99895.09;5021737;28;45216;-75
2021/07/25 03:04:37;;;;;;;;;3.25;3.25;;;;;27.89;44.04;99887.03;5038949;28;65404;-75
2021/07/25 03:07:03;;;;;;;;;4.00;4.00;;;;;27.85;44.90;99893.59;5039645;28;45437;-75
2021/07/25 03:09:28;;;;;;;;;3.75;3.25;;;;;27.85;45.01;99890.91;5039904;28;45525;-75
2021/07/25 03:11:54;;;;;;;;;3.00;3.00;;;;;27.84;44.42;99883.84;5037878;28;59007;-75
2021/07/25 03:14:19;;;;;;;;;5.00;5.00;;;;;27.80;44.95;99883.22;5038544;28;68028;-75
2021/07/25 03:16:45;;;;;;;;;3.00;3.00;;;;;27.78;44.96;99884.28;5039698;28;45212;-75
2021/07/25 03:19:11;;;;;;;;;4.75;2.75;;;;;27.76;45.09;99879.06;5044599;28;45331;-75
2021/07/25 03:21:36;;;;;;;;;2.00;2.00;;;;;27.74;44.42;99880.16;5037741;28;63245;-75
2021/07/25 03:24:01;;;;;;;;;3.50;3.50;;;;;27.72;45.29;99879.41;5051224;28;45920;-75
2021/07/25 03:26:27;;;;;;;;;2.25;2.25;;;;;27.70;45.15;99878.66;5061341;28;45415;-75
2021/07/25 03:28:52;;;;;;;;;3.25;3.00;;;;;27.66;45.38;99877.16;5061687;28;45786;-75
2021/07/25 03:31:18;;;;;;;;;4.25;4.25;;;;;27.66;44.96;99879.84;5062490;28;59706;-75
2021/07/25 03:33:43;;;;;;;;;4.00;3.00;;;;;27.66;45.38;99883.41;5062233;28;66166;-75
2021/07/25 03:36:09;;;;;;;;;2.00;2.00;;;;;27.60;44.79;99873.97;5062129;28;64911;-75
2021/07/25 03:38:34;;;;;;;;;3.00;3.00;;;;;27.60;45.24;99870.44;5063078;28;45391;-75
2021/07/25 03:41:02;;;;;;;;;4.00;3.00;;;;;27.58;45.24;99872.38;5061816;28;45288;-75
2021/07/25 03:43:29;;;;;;;;;5.00;5.00;;;;;27.54;45.24;99874.44;5061208;28;47431;-75
2021/07/25 03:45:54;;;;;;;;;3.00;3.00;;;;;27.52;45.19;99870.16;5041187;28;45276;-75
2021/07/25 03:48:19;;;;;;;;;3.00;3.00;;;;;27.53;45.78;99872.69;5015278;28;63076;-75
2021/07/25 03:50:45;;;;;;;;;3.00;3.00;;;;;27.54;45.34;99869.09;5042117;28;53176;-75
2021/07/25 03:53:10;;;;;;;;;4.00;3.00;;;;;27.54;45.28;99862.84;5061363;28;47154;-75
2021/07/25 03:55:36;;;;;;;;;4.00;4.00;;;;;27.56;45.40;99877.84;5027901;28;45332;-75
2021/07/25 03:58:05;;;;;;;;;4.25;2.25;;;;;27.58;45.00;99870.53;5044661;28;45383;-75
2021/07/25 04:00:30;;;;;;;;;3.00;3.00;;;;;27.56;45.23;99869.81;5044704;28;45310;-75
2021/07/25 04:02:55;;;;;;;;;4.50;3.25;;;;;27.53;45.74;99871.84;5060583;28;70908;-75
2021/07/25 04:05:21;;;;;;;;;4.25;2.25;;;;;27.54;45.42;99865.50;5043394;28;72215;-75
2021/07/25 04:07:46;;;;;;;;;4.00;3.00;;;;;27.57;45.82;99866.16;5044904;28;45477;-75
2021/07/25 04:10:12;;;;;;;;;3.50;3.25;;;;;27.58;45.41;99854.47;5044345;28;45399;-74
2021/07/25 04:12:37;;;;;;;;;4.00;4.00;;;;;27.59;45.67;99858.84;5044254;28;47287;-75
2021/07/25 04:15:04;;;;;;;;;5.25;4.50;;;;;27.61;45.24;99858.72;5043223;28;70315;-75
2021/07/25 04:17:29;;;;;;;;;5.00;3.50;;;;;27.60;45.18;99859.69;5044704;28;45280;-75
2021/07/25 04:19:55;;;;;;;;;2.00;2.00;;;;;27.59;45.00;99871.41;5044226;28;45185;-74
2021/07/25 04:22:20;;;;;;;;;4.00;3.00;;;;;27.56;45.06;99866.28;5043779;28;60569;-75
2021/07/25 04:24:46;;;;;;;;;4.00;3.25;;;;;27.54;45.44;99860.16;5043661;28;57796;-74
2021/07/25 04:27:11;;;;;;;;;2.75;2.75;;;;;27.48;45.53;99864.16;5044466;28;45461;-75
2021/07/25 04:29:37;;;;;;;;;4.00;4.00;;;;;27.46;44.78;99860.75;5043702;28;46885;-75
2021/07/25 04:32:03;;;;;;;;;4.50;3.75;;;;;27.45;45.34;99860.84;5044163;28;48347;-75
2021/07/25 04:34:28;;;;;;;;;3.50;3.00;;;;;27.44;45.73;99856.47;5060708;28;45379;-75
2021/07/25 04:36:56;;;;;;;;;4.00;4.00;;;;;27.43;45.41;99860.97;5043798;28;45347;-75
2021/07/25 04:39:22;;;;;;;;;4.00;4.00;;;;;27.42;45.41;99861.94;5043944;28;45294;-75
2021/07/25 04:41:52;;;;;;;;;4.25;3.50;;;;;27.42;45.45;99856.59;5062007;28;46059;-75
2021/07/25 04:44:28;;;;;;;;;4.00;4.00;;;;;27.43;45.53;99860.97;5043452;28;45462;-74
2021/07/25 04:46:54;;;;;;;;;3.00;3.00;;;;;27.45;45.11;99863.53;5044250;28;45488;-74
2021/07/25 04:49:20;;;;;;;;;3.00;3.00;;;;;27.41;45.51;99860.22;5043897;28;45371;-74
2021/07/25 04:51:46;;;;;;;;;4.75;3.00;;;;;27.33;44.99;99854.59;5043312;28;54530;-74
2021/07/25 04:54:16;;;;;;;;;4.25;4.00;;;;;27.25;44.54;99870.38;5060508;28;45412;-74
2021/07/25 04:57:02;;;;;;;;;4.25;3.00;;;;;27.19;44.52;99863.66;5043961;28;45478;-74
2021/07/25 04:59:35;;;;;;;;;3.75;3.00;;;;;27.12;45.14;99866.91;5060198;28;46129;-74
2021/07/25 05:02:04;;;;;;;;;2.50;2.50;;;;;27.06;45.13;99867.34;5044263;28;46373;-74
2021/07/25 05:04:29;;;;;;;;;3.75;3.50;;;;;27.00;45.21;99864.09;5044312;28;45493;-74
2021/07/25 05:06:55;;;;;;;;;6.00;4.50;;;;;26.96;45.34;99867.97;5043648;28;45358;-74
2021/07/25 05:09:21;;;;;;;;;2.50;2.25;;;;;26.90;44.77;99872.91;5043606;28;45256;-74
2021/07/25 05:11:51;;;;;;;;;3.00;3.00;;;;;26.81;45.23;99871.75;5060252;28;45380;-74
2021/07/25 05:14:25;;;;;;;;;4.50;3.00;;;;;26.75;45.23;99874.88;5043739;28;45286;-75
2021/07/25 05:17:00;;;;;;;;;4.25;3.75;;;;;26.67;45.70;99872.78;5043999;28;45382;-74
2021/07/25 05:19:48;;;;;;;;;4.75;4.00;;;;;26.65;45.37;99880.03;5027298;28;45434;-75
2021/07/25 05:22:22;;;;;;;;;4.00;4.00;;;;;26.63;46.19;99881.09;5060148;28;48209;-74
2021/07/25 05:24:48;;;;;;;;;4.00;3.00;;;;;26.60;45.86;99876.00;5059982;28;45326;-74
2021/07/25 05:27:19;;;;;;;;;4.25;3.00;;;;;26.57;46.00;99877.03;5043267;28;45417;-74
2021/07/25 05:29:45;;;;;;;;;4.75;2.00;;;;;26.52;45.70;99873.84;5042929;28;45508;-74
2021/07/25 05:32:11;;;;;;;;;6.25;3.50;;;;;26.52;45.75;99881.03;5076689;28;46237;-74
2021/07/25 05:34:36;;;;;;;;;6.25;4.00;;;;;26.51;46.09;99876.63;5060964;28;46827;-74
2021/07/25 05:37:02;;;;;;;;;5.75;2.75;;;;;26.47;45.95;99870.63;5061184;28;45228;-74
2021/07/25 05:39:27;;;;;;;;;3.75;3.00;;;;;26.53;45.85;99870.19;5061046;28;45378;-75
2021/07/25 05:41:53;;;;;;;;;3.50;3.50;;;;;26.54;46.11;99866.56;5042182;28;68718;-75
2021/07/25 05:44:18;;;;;;;;;5.25;5.25;;;;;26.56;45.95;99863.78;5025382;28;61743;-76
2021/07/25 05:46:43;;;;;;;;;4.50;4.50;;;;;26.58;46.13;99860.00;5043143;28;45536;-74
2021/07/25 05:49:09;;;;;;;;;7.00;3.25;;;;;26.59;46.86;99867.09;5042751;28;45319;-75
2021/07/25 05:51:37;;;;;;;;;5.75;4.75;;;;;26.63;46.29;99857.03;5043667;28;47063;-83
2021/07/25 05:54:02;;;;;;;;;4.00;3.50;;;;;26.60;46.49;99846.53;5055802;28;45428;-77
2021/07/25 05:56:28;;;;;;;;;7.00;4.00;;;;;26.55;46.44;99846.00;5050344;28;62246;-75
2021/07/25 05:58:53;;;;;;;;;4.00;3.00;;;;;26.61;46.26;99861.63;5038907;28;45560;-73
2021/07/25 06:01:19;;;;;;;;;3.00;3.00;;;;;26.59;46.48;99858.22;5050676;28;46979;-74
2021/07/25 06:03:44;;;;;;;;;4.00;4.00;;;;;26.58;46.71;99857.34;5055658;28;58166;-72
2021/07/25 06:06:10;;;;;;;;;5.75;3.75;;;;;26.61;46.49;99869.66;5051526;28;45233;-74
2021/07/25 06:08:35;;;;;;;;;4.75;4.75;;;;;26.63;47.45;99875.75;5059274;28;45559;-75
2021/07/25 06:11:00;;;;;;;;;6.00;4.00;;;;;26.64;46.32;99877.47;5059207;28;48168;-74
2021/07/25 06:13:26;;;;;;;;;4.25;4.25;;;;;26.64;46.94;99874.78;5042073;28;49959;-81
2021/07/25 06:15:51;;;;;;;;;3.25;3.25;;;;;26.66;46.74;99875.53;5059218;28;45306;-76
2021/07/25 06:18:17;;;;;;;;;6.25;6.25;;;;;26.72;46.25;99881.31;5041934;28;53475;-77
2021/07/25 06:20:42;;;;;;;;;4.00;4.00;;;;;26.78;46.38;99877.34;5041896;28;56148;-75
2021/07/25 06:23:09;;;;;;;;;4.00;4.00;;;;;26.76;46.95;99865.91;5042113;28;48172;-75
2021/07/25 06:25:35;;;;;;;;;5.00;4.25;;;;;26.81;46.45;99869.09;5042900;28;45342;-72
2021/07/25 06:28:01;;;;;;;;;6.75;5.00;;;;;26.86;46.09;99871.44;5042197;28;45248;-72
2021/07/25 06:30:27;;;;;;;;;8.75;7.00;;;;;26.81;46.11;99869.09;5042169;28;47264;-76
2021/07/25 06:32:56;;;;;;;;;6.50;5.00;;;;;26.77;45.73;99873.81;5058962;28;45247;-73
2021/07/25 06:35:23;;;;;;;;;4.75;4.75;;;;;26.73;45.95;99877.66;5059304;28;45413;-74
2021/07/25 06:37:48;;;;;;;;;5.00;5.00;;;;;26.62;45.78;99874.06;5042080;28;45285;-73
2021/07/25 06:40:14;;;;;;;;;8.25;6.25;;;;;26.52;45.80;99868.50;5058871;28;46239;-73
2021/07/25 06:42:40;;;;;;;;;7.75;5.50;;;;;26.45;46.01;99872.56;5042070;28;45390;-75
2021/07/25 06:45:05;;;;;;;;;5.25;4.75;;;;;26.30;45.96;99865.56;5058115;28;58052;-76
2021/07/25 06:47:31;;;;;;;;;4.50;4.50;;;;;26.30;45.86;99876.28;5058759;28;45257;-75
2021/07/25 06:49:56;;;;;;;;;7.50;7.50;;;;;26.27;46.02;99874.69;5058339;28;58973;-75
2021/07/25 06:52:21;;;;;;;;;7.75;6.00;;;;;26.25;46.35;99878.44;5054856;28;66995;-74
2021/07/25 06:54:47;;;;;;;;;6.25;6.00;;;;;26.16;46.23;99877.25;5040593;28;45733;-74
2021/07/25 06:57:12;;;;;;;;;5.75;5.00;;;;;26.10;46.03;99883.00;5021225;28;61028;-73
2021/07/25 06:59:37;;;;;;;;;4.00;4.00;;;;;26.08;46.30;99876.91;5038122;28;49697;-76
2021/07/25 07:02:04;;;;;;;;;4.75;4.75;;;;;25.98;46.51;99878.50;5041706;28;45291;-84
2021/07/25 07:04:29;;;;;;;;;7.25;6.00;;;;;25.93;46.56;99879.66;5045818;28;45260;-76
2021/07/25 07:06:55;;;;;;;;;10.00;7.00;;;;;25.91;46.22;99889.63;5044852;28;60597;-81
2021/07/25 07:09:20;;;;;;;;;5.25;5.25;;;;;25.87;46.67;99885.41;5063359;28;46216;-80
2021/07/25 07:11:45;;;;;;;;;7.50;7.00;;;;;25.82;46.46;99889.38;5061717;28;58671;-81
2021/07/25 07:14:11;;;;;;;;;9.00;8.00;;;;;25.79;46.78;99889.56;5068137;28;60939;-77
2021/07/25 07:16:36;;;;;;;;;5.50;5.00;;;;;25.78;46.46;99885.19;5028424;28;45324;-82
2021/07/25 07:19:02;;;;;;;;;8.00;8.00;;;;;25.75;46.36;99883.59;5045220;28;45364;-82
2021/07/25 07:21:27;;;;;;;;;5.50;5.50;;;;;25.73;46.75;99892.69;5045371;28;45437;-80
2021/07/25 07:23:53;;;;;;;;;6.25;6.00;;;;;25.71;47.16;99890.09;5044787;28;55754;-75
2021/07/25 07:26:18;;;;;;;;;7.25;6.50;;;;;25.72;46.91;99883.81;5063119;28;45322;-77
2021/07/25 07:28:43;;;;;;;;;8.50;7.25;;;;;25.72;47.00;99893.66;5044970;28;45319;-74
2021/07/25 07:31:09;;;;;;;;;8.00;7.00;;;;;25.73;47.60;99898.88;5060781;28;71510;-72
2021/07/25 07:33:34;;;;;;;;;7.50;6.00;;;;;25.77;47.46;99892.34;5028440;28;45379;-73
2021/07/25 07:36:00;;;;;;;;;7.50;7.00;;;;;25.84;47.65;99893.66;5062712;28;52908;-72
2021/07/25 07:38:25;;;;;;;;;8.75;7.75;;;;;25.89;47.52;99894.22;5061438;28;56932;-72
2021/07/25 07:40:50;;;;;;;;;8.50;8.50;;;;;25.88;46.98;99892.47;5044656;28;45842;-72
2021/07/25 07:43:17;;;;;;;;;9.25;8.00;;;;;25.86;47.29;99890.88;5063005;28;45219;-73
2021/07/25 07:45:42;;;;;;;;;10.25;9.00;;;;;25.87;47.26;99887.25;5062762;28;45230;-73
2021/07/25 07:48:07;;;;;;;;;7.50;6.75;;;;;25.91;47.54;99888.75;5044771;28;46834;-71
2021/07/25 07:50:33;;;;;;;;;9.75;6.75;;;;;25.97;48.02;99890.16;5062895;28;45210;-72
2021/07/25 07:52:58;;;;;;;;;7.25;7.25;;;;;25.98;48.12;99884.72;5053577;28;45487;-74
2021/07/25 07:55:24;;;;;;;;;6.00;6.00;;;;;26.00;48.39;99893.47;5041260;28;45320;-75
2021/07/25 07:57:49;;;;;;;;;10.25;8.50;;;;;25.96;48.19;99883.09;5024577;28;45252;-75
2021/07/25 08:00:15;;;;;;;;;10.00;9.00;;;;;25.93;48.04;99889.50;5040536;28;57636;-75
2021/07/25 08:02:40;;;;;;;;;12.25;8.00;;;;;25.87;47.70;99888.09;5024907;28;45287;-72
2021/07/25 08:05:06;;;;;;;;;9.00;8.25;;;;;25.83;47.90;99891.09;5024353;28;45379;-79
2021/07/25 08:07:31;;;;;;;;;10.75;9.75;;;;;25.85;48.33;99895.38;5024521;28;45527;-75
2021/07/25 08:09:57;;;;;;;;;10.75;7.25;;;;;25.88;48.45;99892.47;5024540;28;45814;-73
2021/07/25 08:12:22;;;;;;;;;10.00;8.00;;;;;25.93;48.29;99893.03;5039228;28;61444;-75
2021/07/25 08:14:47;;;;;;;;;9.00;7.75;;;;;25.98;48.88;99886.53;5023451;28;69163;-75
2021/07/25 08:17:13;;;;;;;;;9.50;8.25;;;;;26.02;48.99;99890.69;5023783;28;59341;-75
2021/07/25 08:19:38;;;;;;;;;7.00;7.00;;;;;26.11;48.54;99896.28;5048892;28;45948;-75
2021/07/25 08:22:07;;;;;;;;;9.25;8.00;;;;;26.18;48.31;99902.91;5044520;28;45465;-75
2021/07/25 08:24:33;;;;;;;;;9.25;9.25;;;;;26.21;48.26;99888.47;5060991;28;45252;-75
2021/07/25 08:26:58;;;;;;;;;7.50;7.25;;;;;26.26;47.99;99891.69;5044305;28;45197;-75
2021/07/25 08:29:24;;;;;;;;;10.25;8.50;;;;;26.30;48.30;99889.66;5060293;28;53161;-75
2021/07/25 08:31:50;;;;;;;;;11.00;8.75;;;;;26.32;47.76;99883.22;5044356;28;45424;-75
2021/07/25 08:34:15;;;;;;;;;10.25;10.25;;;;;26.37;47.80;99890.94;5044065;28;45427;-75
2021/07/25 08:36:44;;;;;;;;;7.25;7.25;;;;;26.37;47.67;99890.94;5043177;28;67907;-75
2021/07/25 08:39:10;;;;;;;;;10.00;10.00;;;;;26.41;47.40;99887.09;5044276;28;45449;-75
2021/07/25 08:41:46;;;;;;;;;11.75;11.00;;;;;26.44;47.57;99890.44;5060863;28;45418;-75
2021/07/25 08:44:24;;;;;;;;;10.50;9.50;;;;;26.43;47.19;99886.06;5060265;28;45370;-75
2021/07/25 08:46:54;;;;;;;;;9.00;7.50;;;;;26.41;47.35;99896.03;5043957;28;47528;-75
2021/07/25 08:49:19;;;;;;;;;9.50;8.25;;;;;26.42;47.70;99889.69;5061804;28;45382;-75
2021/07/25 08:51:54;;;;;;;;;9.00;9.00;;;;;26.45;47.78;99889.47;5042939;28;60375;-75
2021/07/25 08:54:19;;;;;;;;;8.75;8.75;;;;;26.45;47.56;99889.47;5040503;28;45477;-75
2021/07/25 08:56:45;;;;;;;;;9.50;7.75;;;;;26.43;47.50;99891.41;5032380;28;74009;-75
2021/07/25 08:59:10;;;;;;;;;9.25;7.75;;;;;26.44;48.07;99890.44;5039236;28;66244;-75
2021/07/25 09:01:37;;;;;;;;;10.50;9.75;;;;;26.45;47.96;99892.16;5039899;28;57326;-76
2021/07/25 09:04:03;;;;;;;;;13.75;10.00;;;;;26.46;47.74;99903.72;5023470;28;45548;-76
2021/07/25 09:06:38;;;;;;;;;11.00;9.00;;;;;26.41;47.83;99893.34;5054517;28;45244;-75
2021/07/25 09:09:03;;;;;;;;;11.00;8.00;;;;;26.37;48.32;99896.28;5044142;28;45375;-75
2021/07/25 09:11:29;;;;;;;;;10.75;7.50;;;;;26.36;47.99;99891.91;5043579;28;45266;-75
2021/07/25 09:13:58;;;;;;;;;8.25;8.00;;;;;26.30;47.95;99893.19;5059304;28;62482;-76
2021/07/25 09:16:28;;;;;;;;;7.25;7.25;;;;;26.35;48.50;99900.91;5043766;28;48237;-75
2021/07/25 09:18:56;;;;;;;;;9.00;8.00;;;;;26.35;48.30;99899.06;5060210;28;45331;-75
2021/07/25 09:21:42;;;;;;;;;9.00;9.00;;;;;26.37;48.64;99902.50;5025561;28;45333;-78
2021/07/25 09:24:18;;;;;;;;;8.50;8.50;;;;;26.40;48.22;99893.41;5042926;28;45444;-77
2021/07/25 09:26:57;;;;;;;;;7.00;7.00;;;;;26.42;48.54;99899.56;5061419;28;45401;-76
2021/07/25 09:29:28;;;;;;;;;9.25;8.25;;;;;26.46;48.93;99906.38;5043006;28;45204;-81
2021/07/25 09:32:12;;;;;;;;;11.00;9.75;;;;;26.47;49.01;99895.56;5060238;28;45398;-77
2021/07/25 09:34:39;;;;;;;;;8.25;8.25;;;;;26.51;49.15;99900.72;5043219;28;45514;-76
2021/07/25 09:37:15;;;;;;;;;8.75;8.75;;;;;26.52;48.76;99891.72;5043122;28;48115;-76
2021/07/25 09:39:42;;;;;;;;;8.00;5.75;;;;;26.50;49.17;99899.88;5043509;28;45515;-77
2021/07/25 09:42:08;;;;;;;;;8.00;7.50;;;;;26.50;49.28;99902.53;5043239;28;45269;-77
2021/07/25 09:44:45;;;;;;;;;6.75;6.75;;;;;26.49;50.46;99903.47;5056116;28;45542;-80
2021/07/25 09:47:25;;;;;;;;;11.75;10.00;;;;;26.47;52.20;99900.91;5038338;28;45470;-71
2021/07/25 09:49:51;;;;;;;;;13.00;10.75;;;;;26.52;52.48;99905.09;5059662;28;45298;-69
2021/07/25 09:52:17;;;;;;;;;12.75;12.25;;;;;26.57;53.08;99898.44;5059471;28;45299;-70
2021/07/25 09:54:42;;;;;;;;;21.00;16.75;;;;;26.62;52.91;99900.81;5061788;28;45668;-79
2021/07/25 09:57:11;;;;;;;;;12.50;11.00;;;;;26.60;52.32;99897.41;5030156;28;53444;-80
2021/07/25 09:59:36;;;;;;;;;58.50;47.00;;;;;26.54;53.36;99900.50;5059383;28;45349;-75
2021/07/25 10:02:02;;;;;;;;;32.00;30.00;;;;;26.48;53.26;99899.09;5042457;28;46501;-76
2021/07/25 10:04:27;;;;;;;;;17.25;16.00;;;;;26.44;52.32;99893.13;5042423;28;45398;-73
2021/07/25 10:06:54;;;;;;;;;12.75;12.25;;;;;26.31;52.05;99883.34;5059445;28;47254;-82
2021/07/25 10:09:20;;;;;;;;;14.75;14.75;;;;;26.34;52.90;99891.16;5042644;28;45322;-75
2021/07/25 10:11:52;;;;;;;;;19.00;18.00;;;;;26.28;52.14;99889.75;5060723;28;45309;-85
2021/07/25 10:14:19;;;;;;;;;9.50;9.50;;;;;26.26;51.71;99889.03;5059769;28;45433;-77
2021/07/25 10:16:45;;;;;;;;;8.75;8.00;;;;;26.18;51.18;99888.69;5060240;28;45514;-77
2021/07/25 10:19:11;;;;;;;;;9.75;8.75;;;;;26.15;51.72;99881.75;5042644;28;45533;-73
2021/07/25 10:21:36;;;;;;;;;12.50;10.75;;;;;26.08;51.34;99874.25;5059374;28;45327;-77
2021/07/25 10:24:02;;;;;;;;;9.75;9.25;;;;;26.01;51.05;99872.94;5041622;28;65643;-76
2021/07/25 10:26:28;;;;;;;;;10.50;9.50;;;;;25.99;51.33;99865.03;5042273;28;45271;-75
2021/07/25 10:28:54;;;;;;;;;10.25;9.25;;;;;25.95;51.00;99871.53;5042160;28;45302;-72
2021/07/25 10:31:24;;;;;;;;;8.00;7.25;;;;;25.93;50.51;99860.09;5042477;28;45400;-77
2021/07/25 10:33:50;;;;;;;;;11.50;11.00;;;;;25.88;50.54;99865.75;5042750;28;45429;-77
2021/07/25 10:36:17;;;;;;;;;9.50;8.75;;;;;25.85;50.40;99868.63;5059025;28;45739;-78
2021/07/25 10:38:44;;;;;;;;;7.75;7.75;;;;;25.81;49.95;99866.28;5060260;28;45209;-75
2021/07/25 10:41:09;;;;;;;;;10.25;9.50;;;;;25.76;50.24;99879.09;5042508;28;45261;-76
2021/07/25 10:43:35;;;;;;;;;9.25;7.75;;;;;25.72;50.30;99867.78;5057885;28;64692;-76
2021/07/25 10:46:22;;;;;;;;;10.00;9.00;;;;;25.72;50.83;99859.75;5041844;28;47328;-73
2021/07/25 10:49:00;;;;;;;;;12.75;10.50;;;;;25.73;50.55;99853.44;5058713;28;45503;-73
2021/07/25 10:51:32;;;;;;;;;9.25;9.25;;;;;25.78;50.27;99858.47;5060386;28;45314;-73
2021/07/25 10:54:19;;;;;;;;;11.00;11.00;;;;;25.83;50.34;99861.69;5059240;28;45435;-73
2021/07/25 10:57:04;;;;;;;;;9.75;9.25;;;;;25.85;50.61;99852.59;5059800;28;46273;-74
2021/07/25 10:59:39;;;;;;;;;9.00;9.00;;;;;25.88;49.83;99856.88;5058935;28;46074;-74
2021/07/25 11:02:05;;;;;;;;;9.25;8.00;;;;;25.87;49.95;99855.16;5058806;28;45465;-76
2021/07/25 11:04:55;;;;;;;;;11.50;9.50;;;;;25.88;49.79;99846.19;5041659;28;45649;-75
2021/07/25 11:07:23;;;;;;;;;14.75;14.50;;;;;25.89;49.74;99843.44;5058551;28;48175;-74
2021/07/25 11:09:55;;;;;;;;;19.25;14.50;;;;;25.89;49.71;99851.44;5058330;28;45421;-72
2021/07/25 11:12:20;;;;;;;;;15.00;13.75;;;;;25.88;49.77;99849.69;5060041;28;45488;-72
2021/07/25 11:14:55;;;;;;;;;13.00;10.75;;;;;25.90;49.88;99850.47;5040909;28;56673;-72
2021/07/25 11:17:45;;;;;;;;;10.00;10.00;;;;;25.89;49.68;99851.44;5058250;28;48707;-74
2021/07/25 11:20:32;;;;;;;;;11.75;10.00;;;;;25.87;49.55;99842.66;5059477;28;45256;-73
2021/07/25 11:22:58;;;;;;;;;11.00;11.00;;;;;25.89;49.75;99842.56;5051301;28;45811;-71
2021/07/25 11:25:28;;;;;;;;;11.75;10.75;;;;;25.92;49.37;99840.53;5037267;28;45679;-71
2021/07/25 11:27:54;;;;;;;;;9.50;9.50;;;;;25.94;49.36;99835.06;5039172;28;45472;-70
2021/07/25 11:30:48;;;;;;;;;11.50;10.00;;;;;25.95;48.94;99826.09;5042765;28;67294;-69
2021/07/25 11:33:39;;;;;;;;;10.00;10.00;;;;;25.95;49.10;99827.91;5062617;28;45411;-71